CheckWX is a tool to help pilots better visualize weather data.  It is not intended as a substitute for an official pre-flight weather briefing.

21:34:57 UTC

VDPP TAF
Phnom Penh International Airport
Phnom Penh, Cambodia
TAF VDPP 201700Z 2018/2112 19008KT 9999 SCT017 TEMPO 2019/2023 SCT015 FEW017CB

Mar-20@
18:00 UTC

Mar-20 @ 18:00 UTC

Mar-21@
12:00 UTC

Mar-21 @ 12:00 UTC

TAF VDPP 201700Z 2018/2112 19008KT 9999 SCT017
Wind
  • 190° at 8 KTS
Cloud Levels
  • Scattered at 1,700' AGL

Mar-20@
19:00 UTC

Mar-20 @ 19:00 UTC

Mar-20@
23:00 UTC

Mar-20 @ 23:00 UTC

TEMPO 2019/2023 SCT015 FEW017CB

Temporary

Temporary Changes expected for less than half the time period

Cloud Levels
  • Scattered at 1,500' AGL
  • Few at 1,700' AGL